Time;durP1;ratioP1;P1;durP2;ratioP2;P2;SDS_P1;SDS_P2;PMS_P1;PMS_P2;Temp;Humidity;BMP_temperature;BMP_pressure;BME280_temperature;BME280_humidity;BME280_pressure;Samples;Min_cycle;Max_cycle;Signal;HPM_P1;HPM_P2
2022/12/13 00:01:33;;;;;;;;;12.33;10.00;;;;;-3.26;87.09;97819.22;4971062;28;102158;-72
2022/12/13 00:04:03;;;;;;;;;14.00;10.67;;;;;-3.32;86.74;97815.28;4973446;28;103964;-72
2022/12/13 00:06:31;;;;;;;;;11.67;10.00;;;;;-3.33;86.59;97810.16;4964252;28;102780;-71
2022/12/13 00:08:59;;;;;;;;;16.33;10.67;;;;;-3.44;86.69;97804.97;4953559;28;102082;-71
2022/12/13 00:11:26;;;;;;;;;11.00;7.33;;;;;-3.34;87.27;97816.41;4955864;28;102008;-71
2022/12/13 00:13:54;;;;;;;;;16.67;15.00;;;;;-3.49;86.85;97818.56;4934678;28;103314;-72
2022/12/13 00:16:23;;;;;;;;;17.33;14.33;;;;;-3.50;86.61;97821.34;4953802;28;102253;-72
2022/12/13 00:18:54;;;;;;;;;16.67;12.33;;;;;-3.46;86.19;97812.16;4952530;28;102071;-73
2022/12/13 00:21:23;;;;;;;;;13.33;11.33;;;;;-3.49;86.10;97815.94;4948752;28;102921;-71
2022/12/13 00:23:50;;;;;;;;;14.67;11.00;;;;;-3.50;86.39;97818.69;4958407;28;104009;-72
2022/12/13 00:26:29;;;;;;;;;11.67;11.33;;;;;-3.50;87.02;97819.53;4955987;28;103879;-72
2022/12/13 00:29:04;;;;;;;;;7.00;6.33;;;;;-3.46;86.43;97820.94;4950721;28;102163;-71
2022/12/13 00:31:32;;;;;;;;;16.00;15.67;;;;;-3.60;86.46;97832.69;4940861;28;102089;-72
2022/12/13 00:34:19;;;;;;;;;13.00;10.00;;;;;-3.66;85.65;97812.13;4951548;28;107665;-73
2022/12/13 00:36:47;;;;;;;;;16.00;10.00;;;;;-3.58;86.84;97837.03;4957038;28;102331;-73
2022/12/13 00:39:15;;;;;;;;;12.00;10.00;;;;;-3.70;86.39;97816.00;4944748;28;102342;-71
2022/12/13 00:41:43;;;;;;;;;15.00;13.00;;;;;-3.62;85.58;97834.66;4954309;28;102474;-72
2022/12/13 00:44:12;;;;;;;;;13.00;10.00;;;;;-3.77;85.67;97841.25;4955549;28;104018;-71
2022/12/13 00:46:40;;;;;;;;;15.67;11.33;;;;;-3.89;84.89;97829.09;4954005;28;103610;-70
2022/12/13 00:49:09;;;;;;;;;10.33;8.33;;;;;-3.75;85.69;97851.69;4958522;28;102873;-72
2022/12/13 00:51:36;;;;;;;;;11.33;9.00;;;;;-3.87;85.44;97829.78;4958688;28;102440;-72
2022/12/13 00:54:04;;;;;;;;;5.33;5.33;;;;;-3.71;85.50;97853.94;4954541;28;104054;-72
2022/12/13 00:56:32;;;;;;;;;7.00;7.00;;;;;-3.77;85.41;97857.09;4960927;28;102383;-72
2022/12/13 00:58:59;;;;;;;;;10.67;10.00;;;;;-3.93;84.87;97835.59;4954464;28;103869;-72
2022/12/13 01:01:29;;;;;;;;;12.67;9.67;;;;;-3.79;85.70;97852.91;4955814;28;102477;-72
2022/12/13 01:03:59;;;;;;;;;10.00;9.00;;;;;-3.95;84.68;97828.75;4957404;28;104433;-71
2022/12/13 01:06:54;;;;;;;;;10.67;8.33;;;;;-3.82;84.08;97854.00;4955523;28;102578;-72
2022/12/13 01:09:29;;;;;;;;;13.00;11.67;;;;;-3.82;85.38;97856.63;4946366;28;102104;-72
2022/12/13 01:11:58;;;;;;;;;8.00;8.00;;;;;-3.73;84.15;97855.84;4955614;28;102512;-73
2022/12/13 01:14:25;;;;;;;;;15.00;13.00;;;;;-3.82;85.12;97853.16;4956414;28;104162;-73
2022/12/13 01:16:55;;;;;;;;;10.00;7.67;;;;;-3.83;84.34;97852.34;4952050;28;102403;-72
2022/12/13 01:19:25;;;;;;;;;10.67;8.33;;;;;-3.90;84.36;97859.09;4955143;28;103502;-72
2022/12/13 01:22:03;;;;;;;;;11.67;9.33;;;;;-3.93;85.22;97848.78;4960334;28;102464;-72
2022/12/13 01:24:30;;;;;;;;;14.33;10.00;;;;;-3.85;85.25;97856.91;4951189;28;104046;-71
2022/12/13 01:26:57;;;;;;;;;10.67;8.33;;;;;-3.84;84.62;97847.19;4954147;28;102190;-72
2022/12/13 01:29:26;;;;;;;;;9.00;8.67;;;;;-3.81;85.53;97854.84;4951345;28;102296;-72
2022/12/13 01:31:53;;;;;;;;;6.00;6.00;;;;;-3.81;85.41;97855.66;4936197;28;102362;-72
2022/12/13 01:34:22;;;;;;;;;14.00;10.00;;;;;-3.89;84.79;97868.69;4945531;28;104290;-72
2022/12/13 01:36:53;;;;;;;;;13.67;12.67;;;;;-3.99;85.23;97844.03;4958534;28;102485;-72
2022/12/13 01:39:25;;;;;;;;;9.00;9.00;;;;;-3.94;86.10;97864.75;4955509;28;102164;-72
2022/12/13 01:41:58;;;;;;;;;7.00;7.00;;;;;-3.87;87.10;97866.75;4956323;28;102445;-72
2022/12/13 01:45:00;;;;;;;;;10.00;7.00;;;;;-3.83;86.40;97860.25;4955749;28;104164;-73
2022/12/13 01:47:42;;;;;;;;;6.00;4.67;;;;;-3.84;84.57;97866.50;4954958;28;102348;-72
2022/12/13 01:50:15;;;;;;;;;15.00;10.67;;;;;-4.04;85.02;97869.97;4948344;28;101770;-72
2022/12/13 01:52:44;;;;;;;;;10.33;8.67;;;;;-3.93;85.23;97872.56;4954777;28;102577;-72
2022/12/13 01:55:15;;;;;;;;;12.00;7.00;;;;;-3.98;85.68;97863.34;4975281;28;103978;-72
2022/12/13 01:57:47;;;;;;;;;5.33;5.33;;;;;-3.90;85.74;97859.09;4957225;28;102186;-73
2022/12/13 02:00:15;;;;;;;;;12.00;9.67;;;;;-4.02;84.59;97873.31;4954123;28;101953;-72
2022/12/13 02:02:43;;;;;;;;;8.33;7.00;;;;;-3.83;85.46;97864.72;4939848;28;102615;-73
2022/12/13 02:05:35;;;;;;;;;5.33;5.33;;;;;-3.94;85.35;97847.13;4952630;28;104032;-73
2022/12/13 02:08:11;;;;;;;;;9.00;6.00;;;;;-3.89;85.18;97868.69;4953635;28;102795;-72
2022/12/13 02:11:00;;;;;;;;;8.67;4.67;;;;;-3.89;85.30;97863.41;4948548;28;102221;-73
2022/12/13 02:13:42;;;;;;;;;8.33;5.33;;;;;-4.00;84.73;97849.41;4940910;28;102577;-73
2022/12/13 02:16:56;;;;;;;;;9.67;7.00;;;;;-3.87;85.26;97876.50;4957707;28;108679;-73
2022/12/13 02:19:55;;;;;;;;;4.00;3.67;;;;;-3.81;84.36;97871.50;4960328;28;102419;-73
2022/12/13 02:22:53;;;;;;;;;2.33;1.00;;;;;-3.91;84.62;97878.53;4955452;28;101859;-73
2022/12/13 02:26:07;;;;;;;;;8.33;4.67;;;;;-4.05;85.31;97874.41;4955406;28;102476;-72
2022/12/13 02:29:19;;;;;;;;;8.33;7.67;;;;;-4.01;84.14;97875.00;4956411;28;108319;-73
2022/12/13 02:32:02;;;;;;;;;9.00;7.67;;;;;-3.93;84.65;97880.47;4952480;28;102443;-72
2022/12/13 02:34:58;;;;;;;;;4.00;3.00;;;;;-3.84;84.33;97882.34;4959098;28;102173;-73
2022/12/13 02:37:37;;;;;;;;;9.33;8.33;;;;;-4.01;84.22;97879.44;4957109;28;102233;-72
2022/12/13 02:40:25;;;;;;;;;5.33;5.33;;;;;-3.90;85.23;97887.28;4955156;28;105838;-72
2022/12/13 02:43:05;;;;;;;;;9.00;7.00;;;;;-4.06;84.56;97875.41;4954766;28;102438;-73
2022/12/13 02:45:46;;;;;;;;;10.67;10.00;;;;;-4.06;84.27;97872.75;4959842;28;103147;-73
2022/12/13 02:48:20;;;;;;;;;9.33;6.00;;;;;-3.91;85.41;97881.16;4949855;28;102013;-73
2022/12/13 02:50:48;;;;;;;;;4.00;3.00;;;;;-3.87;84.81;97879.94;4956864;28;109024;-73
2022/12/13 02:53:16;;;;;;;;;10.67;7.67;;;;;-3.94;84.07;97875.31;4958335;28;102253;-73
2022/12/13 02:55:43;;;;;;;;;10.67;8.67;;;;;-4.08;84.31;97872.03;4959743;28;101926;-73
2022/12/13 02:58:12;;;;;;;;;7.00;6.33;;;;;-3.99;84.80;97880.97;4931711;28;102496;-73
2022/12/13 03:01:01;;;;;;;;;10.67;9.00;;;;;-4.06;83.93;97888.59;4953732;28;103949;-72
2022/12/13 03:03:58;;;;;;;;;13.33;9.00;;;;;-4.05;84.97;97876.19;4959461;28;102051;-73
2022/12/13 03:06:53;;;;;;;;;11.33;5.33;;;;;-3.96;84.62;97872.00;4960667;28;102066;-73
2022/12/13 03:09:38;;;;;;;;;9.33;5.33;;;;;-4.00;83.88;97883.75;4957598;28;102306;-73
2022/12/13 03:15:18;;;;;;;;;13.00;11.33;;;;;-4.03;85.92;97889.28;4955327;28;102421;-73
2022/12/13 03:17:51;;;;;;;;;9.67;7.00;;;;;-4.02;84.18;97883.88;4957855;28;102934;-73
2022/12/13 03:20:24;;;;;;;;;3.00;3.00;;;;;-4.08;84.22;97865.91;4955816;28;102068;-73
2022/12/13 03:22:52;;;;;;;;;3.00;3.00;;;;;-3.92;84.16;97884.81;4954308;28;108636;-73
2022/12/13 03:25:21;;;;;;;;;12.00;7.00;;;;;-3.96;84.59;97890.47;4959748;28;104252;-73
2022/12/13 03:27:59;;;;;;;;;9.33;4.00;;;;;-3.85;85.11;97896.50;4944138;28;102166;-73
2022/12/13 03:30:27;;;;;;;;;12.33;10.00;;;;;-3.99;86.09;97885.44;4961809;28;102064;-73
2022/12/13 03:32:54;;;;;;;;;15.00;10.00;;;;;-4.02;85.67;97896.25;4961637;28;105352;-72
2022/12/13 03:35:21;;;;;;;;;9.33;8.33;;;;;-4.08;85.24;97889.66;4957642;28;102826;-72
2022/12/13 03:37:49;;;;;;;;;9.67;6.00;;;;;-3.97;85.41;97894.91;4960757;28;102462;-72
2022/12/13 03:40:18;;;;;;;;;4.67;4.00;;;;;-3.92;85.24;97903.28;4962368;28;102028;-73
2022/12/13 03:42:46;;;;;;;;;6.00;4.00;;;;;-3.94;84.64;97904.34;4963996;28;108533;-72
2022/12/13 03:45:12;;;;;;;;;4.00;3.33;;;;;-3.85;85.28;97900.94;4954236;28;102513;-73
2022/12/13 03:47:40;;;;;;;;;2.33;1.67;;;;;-3.78;85.42;97902.94;4961520;28;102179;-73
2022/12/13 03:50:07;;;;;;;;;3.00;2.33;;;;;-3.90;84.72;97882.84;4953829;28;102255;-72
2022/12/13 03:53:00;;;;;;;;;0.33;0.33;;;;;-3.64;85.98;97907.91;4936406;28;108446;-73
2022/12/13 03:55:28;;;;;;;;;1.00;1.00;;;;;-3.58;85.83;97903.06;4955374;28;102089;-73
2022/12/13 03:57:55;;;;;;;;;0.00;0.00;;;;;-3.56;84.56;97896.69;4955729;28;102479;-73
2022/12/13 04:00:22;;;;;;;;;0.00;0.00;;;;;-3.53;85.20;97914.09;4964780;28;102292;-72
2022/12/13 04:02:49;;;;;;;;;1.00;0.00;;;;;-3.51;84.76;97905.03;4965461;28;103958;-73
2022/12/13 04:05:16;;;;;;;;;1.00;0.00;;;;;-3.59;84.88;97886.38;4966836;28;102339;-73
2022/12/13 04:07:44;;;;;;;;;1.00;0.67;;;;;-3.56;85.07;97898.50;4954802;28;101775;-73
2022/12/13 04:10:14;;;;;;;;;0.00;0.00;;;;;-3.53;84.37;97906.16;4963924;28;102509;-72
2022/12/13 04:15:39;;;;;;;;;0.00;0.00;;;;;-3.54;84.33;97904.47;4955233;28;102244;-73
2022/12/13 04:18:06;;;;;;;;;0.00;0.00;;;;;-3.51;85.49;97909.53;4961467;28;102807;-73
2022/12/13 04:20:33;;;;;;;;;1.67;0.00;;;;;-3.54;84.96;97909.75;4957145;28;102352;-73
2022/12/13 04:23:02;;;;;;;;;0.00;0.00;;;;;-3.53;84.41;97911.44;4952044;28;103682;-73
2022/12/13 04:25:37;;;;;;;;;9.33;5.33;;;;;-3.77;86.22;97919.63;4957356;28;102408;-73
2022/12/13 04:28:04;;;;;;;;;6.33;6.00;;;;;-3.75;86.32;97915.91;4940915;28;102272;-73
2022/12/13 04:30:32;;;;;;;;;4.67;4.67;;;;;-3.84;85.61;97911.41;4962414;28;102388;-73
2022/12/13 04:32:59;;;;;;;;;5.00;3.33;;;;;-3.74;87.03;97925.47;4959062;28;103948;-73
2022/12/13 04:35:27;;;;;;;;;6.00;4.00;;;;;-3.71;86.13;97917.31;4957232;28;102145;-73
2022/12/13 04:37:55;;;;;;;;;6.33;4.00;;;;;-3.73;86.24;97916.59;4921698;28;102247;-73
2022/12/13 04:40:23;;;;;;;;;3.00;3.00;;;;;-3.68;85.79;97919.69;4959407;28;102386;-73
2022/12/13 04:42:49;;;;;;;;;1.67;1.00;;;;;-3.67;85.94;97918.72;4952447;28;104505;-73
2022/12/13 04:45:21;;;;;;;;;3.00;1.00;;;;;-3.65;84.96;97922.06;4937648;28;102922;-72
2022/12/13 04:47:48;;;;;;;;;2.33;1.67;;;;;-3.75;85.28;97913.25;4952536;28;102621;-72
2022/12/13 04:50:16;;;;;;;;;3.00;3.00;;;;;-3.77;84.63;97909.91;4958097;28;103759;-72
2022/12/13 04:52:43;;;;;;;;;3.67;3.00;;;;;-3.77;84.99;97909.91;4960175;28;104031;-77
2022/12/13 04:55:11;;;;;;;;;3.67;3.67;;;;;-3.86;85.22;97889.53;4955870;28;103490;-76
2022/12/13 04:57:44;;;;;;;;;6.33;3.33;;;;;-3.73;84.41;97913.97;4958369;28;102071;-72
2022/12/13 05:00:14;;;;;;;;;2.67;1.00;;;;;-3.73;84.89;97921.88;4959713;28;102293;-72
2022/12/13 05:02:41;;;;;;;;;2.00;0.33;;;;;-3.69;84.07;97922.44;4935481;28;104315;-72
2022/12/13 05:05:10;;;;;;;;;1.00;1.00;;;;;-3.69;84.74;97925.09;4937118;28;102464;-72
2022/12/13 05:07:38;;;;;;;;;0.00;0.00;;;;;-3.68;84.51;97919.69;4901144;28;102264;-72
2022/12/13 05:10:10;;;;;;;;;1.00;1.00;;;;;-3.83;83.29;97894.59;4959196;28;102369;-74
2022/12/13 05:12:37;;;;;;;;;6.00;3.67;;;;;-3.81;83.77;97919.06;4963724;28;104043;-72
2022/12/13 05:15:06;;;;;;;;;1.00;1.00;;;;;-3.77;84.20;97914.34;4953061;28;102528;-74
2022/12/13 05:17:33;;;;;;;;;7.33;4.33;;;;;-3.86;84.23;97917.75;4945257;28;102042;-75
2022/12/13 05:20:00;;;;;;;;;3.00;1.67;;;;;-3.80;84.88;97920.72;4953085;28;102356;-71
2022/12/13 05:22:27;;;;;;;;;4.00;4.00;;;;;-3.78;83.75;97929.34;4955227;28;104225;-73
2022/12/13 05:24:54;;;;;;;;;5.00;3.33;;;;;-3.85;84.58;97928.19;4950708;28;102235;-72
2022/12/13 05:27:21;;;;;;;;;3.67;2.33;;;;;-4.17;83.98;97870.16;4953979;28;102125;-73
2022/12/13 05:29:53;;;;;;;;;4.00;1.00;;;;;-3.74;84.38;97928.13;4953579;28;102412;-72
2022/12/13 05:32:37;;;;;;;;;1.00;1.00;;;;;-3.78;84.05;97918.78;4950083;28;104089;-72
2022/12/13 05:35:14;;;;;;;;;1.00;1.00;;;;;-3.81;83.68;97929.63;4939904;28;105891;-73
2022/12/13 05:37:52;;;;;;;;;8.33;6.00;;;;;-3.95;84.77;97929.91;4956023;28;102119;-73
2022/12/13 05:40:26;;;;;;;;;6.33;5.33;;;;;-3.93;85.38;97935.09;4953362;28;103012;-71
2022/12/13 05:42:53;;;;;;;;;8.67;7.00;;;;;-3.99;84.29;97931.16;4941079;28;104008;-72
2022/12/13 05:45:29;;;;;;;;;6.67;6.00;;;;;-4.03;84.69;97927.09;4937518;28;102538;-71
2022/12/13 05:47:56;;;;;;;;;8.67;6.67;;;;;-4.03;85.59;97935.00;4959380;28;102228;-71
2022/12/13 05:50:23;;;;;;;;;10.67;9.00;;;;;-4.11;85.01;97932.16;4937065;28;102336;-72
2022/12/13 05:52:51;;;;;;;;;13.67;11.00;;;;;-4.14;85.48;97924.47;4955690;28;105153;-71
2022/12/13 05:55:18;;;;;;;;;10.67;8.00;;;;;-4.14;85.26;97914.75;4957195;28;102378;-72
2022/12/13 05:57:45;;;;;;;;;10.33;7.00;;;;;-4.10;85.98;97928.56;4966564;28;102366;-71
2022/12/13 06:00:17;;;;;;;;;10.67;7.00;;;;;-3.99;84.83;97930.31;4959869;28;102040;-71
2022/12/13 06:02:57;;;;;;;;;6.33;6.33;;;;;-4.04;84.12;97935.97;4955803;28;108620;-71
2022/12/13 06:05:26;;;;;;;;;5.67;5.67;;;;;-4.03;84.70;97936.81;4957892;28;102175;-70
2022/12/13 06:07:54;;;;;;;;;7.00;4.67;;;;;-3.96;84.52;97935.34;4961556;28;102276;-71
2022/12/13 06:10:24;;;;;;;;;6.00;4.67;;;;;-4.00;84.74;97945.31;4962130;28;102607;-70
2022/12/13 06:13:02;;;;;;;;;3.33;3.00;;;;;-3.95;84.39;97942.28;4968937;28;104014;-70
2022/12/13 06:15:48;;;;;;;;;4.00;3.00;;;;;-3.92;84.15;97947.31;4947002;28;102249;-71
2022/12/13 06:18:15;;;;;;;;;3.00;3.00;;;;;-3.95;84.41;97948.41;4958694;28;104340;-70
2022/12/13 06:20:42;;;;;;;;;5.33;2.33;;;;;-3.92;84.73;97949.97;4958848;28;102244;-71
2022/12/13 06:23:09;;;;;;;;;4.00;3.00;;;;;-3.98;84.35;97950.47;4970384;28;104020;-71
2022/12/13 06:25:36;;;;;;;;;5.33;2.33;;;;;-3.98;84.52;97947.81;4965035;28;102264;-69
2022/12/13 06:28:03;;;;;;;;;10.00;9.33;;;;;-4.25;84.85;97950.94;4967567;28;102355;-70
2022/12/13 06:30:30;;;;;;;;;13.00;7.00;;;;;-4.10;85.96;97949.69;4966231;28;102248;-70
2022/12/13 06:32:57;;;;;;;;;6.67;6.00;;;;;-3.99;85.07;97957.53;4968695;28;103978;-70
2022/12/13 06:35:25;;;;;;;;;10.67;7.00;;;;;-3.94;83.76;97959.81;4961186;28;102469;-70
2022/12/13 06:37:56;;;;;;;;;9.67;7.00;;;;;-4.01;83.76;97953.38;4968859;28;103126;-70
2022/12/13 06:40:30;;;;;;;;;4.00;3.33;;;;;-3.93;84.50;97956.22;4952401;28;102113;-70
2022/12/13 06:42:57;;;;;;;;;3.67;3.00;;;;;-3.89;84.32;97961.09;4965467;28;104027;-70
2022/12/13 06:45:24;;;;;;;;;1.00;1.00;;;;;-3.83;83.43;97967.69;4962886;28;102332;-70
2022/12/13 06:47:51;;;;;;;;;1.00;1.00;;;;;-3.86;83.51;97962.66;4968035;28;102235;-70
2022/12/13 06:50:18;;;;;;;;;4.00;3.33;;;;;-4.02;83.36;97976.28;4952782;28;102388;-69
2022/12/13 06:52:46;;;;;;;;;4.00;4.00;;;;;-4.00;83.53;97970.88;4966905;28;108953;-69
2022/12/13 06:55:13;;;;;;;;;1.00;1.00;;;;;-3.96;82.98;97973.13;4964901;28;102273;-69
2022/12/13 06:57:49;;;;;;;;;6.00;6.00;;;;;-4.03;84.27;97976.41;4969090;28;102361;-70
2022/12/13 07:00:16;;;;;;;;;9.00;6.00;;;;;-4.10;84.06;97982.19;4967689;28;102306;-70
2022/12/13 07:02:53;;;;;;;;;7.67;6.00;;;;;-4.00;84.20;97976.97;4962321;28;107811;-71
2022/12/13 07:05:21;;;;;;;;;6.00;6.00;;;;;-4.02;85.16;97978.94;4969826;28;102160;-70
2022/12/13 07:07:48;;;;;;;;;7.67;6.00;;;;;-4.03;84.08;97979.88;4968923;28;102072;-70
2022/12/13 07:10:15;;;;;;;;;7.00;4.00;;;;;-4.01;84.02;97985.88;4968010;28;102120;-70
2022/12/13 07:12:48;;;;;;;;;6.00;4.67;;;;;-3.94;83.28;97991.50;4968143;28;108849;-69
2022/12/13 07:15:16;;;;;;;;;15.00;10.00;;;;;-4.13;85.09;97992.16;4958343;28;102326;-71
2022/12/13 07:17:43;;;;;;;;;5.67;5.67;;;;;-3.96;84.32;97994.25;4970006;28;101839;-70
2022/12/13 07:20:12;;;;;;;;;9.67;8.33;;;;;-4.09;84.07;97999.69;4968587;28;102190;-70
2022/12/13 07:22:39;;;;;;;;;12.67;10.67;;;;;-4.08;84.68;98003.19;4969251;28;104051;-69
2022/12/13 07:25:13;;;;;;;;;7.00;7.00;;;;;-3.91;84.64;98002.63;4968259;28;102876;-70
2022/12/13 07:27:56;;;;;;;;;9.00;9.00;;;;;-3.94;83.62;97999.41;4964040;28;102238;-71
2022/12/13 07:30:35;;;;;;;;;10.67;9.00;;;;;-3.95;84.20;98003.84;4963224;28;102094;-69
2022/12/13 07:33:08;;;;;;;;;6.33;4.00;;;;;-3.89;83.28;98003.34;4968514;28;104022;-70
2022/12/13 07:35:35;;;;;;;;;9.67;7.00;;;;;-3.89;84.91;98008.63;4954117;28;102766;-69
2022/12/13 07:38:07;;;;;;;;;8.00;8.00;;;;;-3.95;84.30;98001.22;4959960;28;101831;-71
2022/12/13 07:40:36;;;;;;;;;11.33;10.00;;;;;-3.92;83.32;98015.97;4969297;28;102192;-71
2022/12/13 07:43:04;;;;;;;;;13.00;10.00;;;;;-3.95;83.99;98010.94;4960136;28;104167;-70
2022/12/13 07:45:32;;;;;;;;;12.00;9.67;;;;;-3.90;83.52;98022.81;4962536;28;102343;-70
2022/12/13 07:48:03;;;;;;;;;24.33;12.67;;;;;-3.96;84.52;98019.84;4956659;28;102015;-70
2022/12/13 07:50:31;;;;;;;;;12.00;9.00;;;;;-3.74;83.53;98019.75;4969176;28;104101;-70
2022/12/13 07:53:07;;;;;;;;;8.33;7.67;;;;;-3.63;82.92;98017.88;4969929;28;104189;-70
2022/12/13 07:55:35;;;;;;;;;13.00;6.33;;;;;-3.65;83.09;98019.81;4966356;28;102493;-70
2022/12/13 07:58:07;;;;;;;;;12.33;9.00;;;;;-3.64;81.87;98021.50;4966543;28;102110;-70
2022/12/13 08:00:35;;;;;;;;;6.67;6.00;;;;;-3.52;81.81;98018.81;4970086;28;102459;-69
2022/12/13 08:03:02;;;;;;;;;7.00;5.00;;;;;-3.58;83.00;98020.16;4962092;28;104208;-70
2022/12/13 08:05:29;;;;;;;;;4.00;4.00;;;;;-3.48;82.10;98021.06;4965338;28;102217;-70
2022/12/13 08:08:07;;;;;;;;;7.67;7.00;;;;;-3.57;82.11;98021.84;4963569;28;102056;-70
2022/12/13 08:10:35;;;;;;;;;12.00;10.00;;;;;-3.70;81.96;98026.47;4969281;28;102036;-70
2022/12/13 08:13:02;;;;;;;;;15.33;11.33;;;;;-3.71;83.15;98030.06;4950324;28;104331;-70
2022/12/13 08:15:29;;;;;;;;;17.00;16.00;;;;;-3.79;83.27;98033.34;4958167;28;102158;-70
2022/12/13 08:17:59;;;;;;;;;13.67;13.00;;;;;-3.81;82.82;98029.97;4958241;28;102065;-70
2022/12/13 08:20:26;;;;;;;;;20.00;15.33;;;;;-3.85;82.02;98030.34;4945717;28;102271;-69
2022/12/13 08:22:57;;;;;;;;;18.33;15.33;;;;;-3.83;83.67;98029.28;4971069;28;104013;-70
2022/12/13 08:25:29;;;;;;;;;26.00;23.00;;;;;-4.15;83.87;98037.16;4969779;28;102115;-70
2022/12/13 08:27:57;;;;;;;;;25.00;17.33;;;;;-3.96;83.92;98036.50;4970578;28;102020;-70
2022/12/13 08:30:31;;;;;;;;;16.33;15.67;;;;;-3.86;82.04;98034.78;4967123;28;102337;-70
2022/12/13 08:32:58;;;;;;;;;25.00;16.67;;;;;-3.92;81.54;98037.09;4952080;28;103464;-70
2022/12/13 08:35:30;;;;;;;;;19.00;16.00;;;;;-3.67;82.79;98040.25;4957177;28;102424;-70
2022/12/13 08:38:00;;;;;;;;;10.67;10.00;;;;;-3.60;80.54;98044.03;4969329;28;102330;-70
2022/12/13 08:40:27;;;;;;;;;8.00;5.00;;;;;-3.62;81.90;98046.00;4970708;28;102216;-70
2022/12/13 08:42:54;;;;;;;;;9.00;9.00;;;;;-3.51;81.21;98042.44;4970103;28;104039;-71
2022/12/13 08:45:25;;;;;;;;;16.00;13.00;;;;;-3.58;79.92;98049.22;4960008;28;102171;-70
2022/12/13 08:47:55;;;;;;;;;17.67;14.33;;;;;-3.70;80.36;98051.06;4970384;28;102427;-70
2022/12/13 08:50:22;;;;;;;;;21.33;14.00;;;;;-3.68;78.91;98056.22;4969112;28;103156;-71
2022/12/13 08:52:50;;;;;;;;;16.67;12.33;;;;;-3.66;78.06;98060.41;4973211;28;104006;-70
2022/12/13 08:55:18;;;;;;;;;17.33;14.67;;;;;-3.84;77.19;98056.63;4968496;28;102229;-70
2022/12/13 08:57:57;;;;;;;;;17.00;13.00;;;;;-4.29;75.04;98007.56;4954029;28;101954;-70
2022/12/13 09:00:26;;;;;;;;;17.00;13.00;;;;;-3.88;77.77;98054.38;4967669;28;102235;-69
2022/12/13 09:03:05;;;;;;;;;16.00;15.67;;;;;-3.94;77.21;98049.56;4966311;28;102985;-71
2022/12/13 09:05:36;;;;;;;;;15.33;9.00;;;;;-3.73;77.15;98053.09;4950973;28;102686;-70
2022/12/13 09:08:04;;;;;;;;;13.00;10.33;;;;;-3.81;76.53;98051.09;4966301;28;102062;-70
2022/12/13 09:11:00;;;;;;;;;18.00;16.00;;;;;-3.86;76.53;98055.06;4972366;28;104521;-70
2022/12/13 09:13:47;;;;;;;;;21.67;17.67;;;;;-3.94;75.94;98058.34;4969139;28;109562;-70
2022/12/13 09:16:18;;;;;;;;;17.67;16.00;;;;;-4.02;77.23;98052.84;4958726;28;102339;-70
2022/12/13 09:18:50;;;;;;;;;13.33;10.33;;;;;-3.74;76.33;98059.38;4948811;28;102122;-70
2022/12/13 09:21:21;;;;;;;;;13.00;11.00;;;;;-3.88;75.88;98059.66;4965011;28;101939;-70
2022/12/13 09:23:57;;;;;;;;;13.00;10.00;;;;;-3.87;77.23;98050.78;4952966;28;103932;-71
2022/12/13 09:26:27;;;;;;;;;16.00;13.67;;;;;-3.92;76.43;98059.06;4967949;28;102668;-70
2022/12/13 09:29:03;;;;;;;;;14.33;11.67;;;;;-3.88;77.21;98054.38;4952540;28;102225;-70
2022/12/13 09:31:39;;;;;;;;;11.00;8.00;;;;;-3.75;75.62;98061.16;4968487;28;102254;-69
2022/12/13 09:34:07;;;;;;;;;15.67;9.67;;;;;-3.64;76.18;98063.75;4970475;28;104003;-70
2022/12/13 09:36:34;;;;;;;;;8.00;8.00;;;;;-3.43;77.15;98057.69;4968536;28;102739;-70
2022/12/13 09:39:02;;;;;;;;;13.00;10.00;;;;;-3.80;73.32;98051.94;4965816;28;102439;-71
2022/12/13 09:41:36;;;;;;;;;10.33;8.67;;;;;-3.76;74.79;98063.94;4962108;28;102273;-70
2022/12/13 09:44:23;;;;;;;;;8.00;8.00;;;;;-3.86;74.68;98058.56;4958078;28;104115;-69
2022/12/13 09:47:04;;;;;;;;;12.33;10.00;;;;;-3.90;73.49;98056.28;4948868;28;102194;-70
2022/12/13 09:49:43;;;;;;;;;10.00;8.00;;;;;-3.76;74.14;98048.06;4969175;28;102064;-70
2022/12/13 09:52:22;;;;;;;;;14.00;10.00;;;;;-3.69;74.46;98060.66;4970111;28;102314;-70
2022/12/13 09:54:52;;;;;;;;;9.67;7.00;;;;;-3.65;73.67;98059.44;4967901;28;108700;-70
2022/12/13 09:57:25;;;;;;;;;6.00;4.00;;;;;-3.41;73.48;98051.28;4966638;28;102176;-70
2022/12/13 10:00:01;;;;;;;;;6.33;4.00;;;;;-3.21;73.69;98061.06;4965733;28;102364;-71
2022/12/13 10:02:31;;;;;;;;;5.00;5.00;;;;;-3.25;73.34;98058.78;4964509;28;102005;-71
2022/12/13 10:05:21;;;;;;;;;5.00;4.00;;;;;-3.47;73.10;98053.63;4962482;28;104121;-71
2022/12/13 10:08:15;;;;;;;;;9.00;7.33;;;;;-3.73;74.30;98058.38;4962371;28;102935;-70
2022/12/13 10:10:43;;;;;;;;;11.00;11.00;;;;;-3.82;73.66;98064.41;4966529;28;102527;-70
2022/12/13 10:13:41;;;;;;;;;11.33;9.67;;;;;-3.48;75.18;98058.06;4954852;28;104116;-70
2022/12/13 10:16:17;;;;;;;;;10.67;5.00;;;;;-3.19;73.50;98059.09;4963305;28;109038;-71
2022/12/13 10:18:49;;;;;;;;;10.00;4.00;;;;;-2.89;73.24;98052.19;4964899;28;102538;-70
2022/12/13 10:21:18;;;;;;;;;2.00;2.00;;;;;-2.67;73.26;98059.97;4954880;28;103583;-70
2022/12/13 10:23:45;;;;;;;;;1.67;1.00;;;;;-2.54;73.42;98051.81;4959842;28;102022;-70
2022/12/13 10:26:36;;;;;;;;;4.00;2.00;;;;;-2.73;71.32;98061.31;4961485;28;109615;-70
2022/12/13 10:29:05;;;;;;;;;2.00;2.00;;;;;-2.74;71.62;98049.06;4936705;28;102600;-71
2022/12/13 10:31:44;;;;;;;;;7.00;4.33;;;;;-3.06;72.06;98053.59;4952088;28;102031;-70
2022/12/13 10:34:36;;;;;;;;;10.33;7.33;;;;;-3.00;74.80;98044.31;4956088;28;104428;-71
2022/12/13 10:37:23;;;;;;;;;6.33;4.67;;;;;-2.68;72.50;98044.22;4940820;28;108631;-71
2022/12/13 10:39:50;;;;;;;;;2.00;2.00;;;;;-2.54;70.80;98038.56;4952635;28;102124;-71
2022/12/13 10:42:19;;;;;;;;;3.33;2.67;;;;;-2.28;71.99;98039.78;4959329;28;102464;-70
2022/12/13 10:45:15;;;;;;;;;4.00;3.33;;;;;-2.46;72.77;98038.75;4970839;28;103383;-71
2022/12/13 10:47:49;;;;;;;;;6.00;4.33;;;;;-2.35;71.75;98042.13;4950898;28;108604;-71
2022/12/13 10:50:27;;;;;;;;;5.00;4.00;;;;;-2.37;71.59;98037.94;4966993;28;103006;-69
2022/12/13 10:52:57;;;;;;;;;10.00;10.00;;;;;-2.81;72.19;98045.28;4961215;28;102151;-71
2022/12/13 10:55:32;;;;;;;;;18.00;14.33;;;;;-3.24;73.62;98034.00;4963696;28;102290;-70
2022/12/13 10:58:06;;;;;;;;;16.00;13.33;;;;;-3.19;72.71;98039.75;4962231;28;104384;-71
2022/12/13 11:00:37;;;;;;;;;11.67;9.33;;;;;-3.18;74.12;98038.78;4968277;28;102895;-70
2022/12/13 11:03:05;;;;;;;;;15.33;11.00;;;;;-3.10;75.85;98040.78;4969514;28;102087;-70
2022/12/13 11:05:34;;;;;;;;;14.00;13.00;;;;;-3.07;74.63;98036.09;4959246;28;102400;-71
2022/12/13 11:08:25;;;;;;;;;10.00;7.67;;;;;-2.71;74.87;98032.09;4950668;28;103992;-71
2022/12/13 11:10:57;;;;;;;;;10.67;8.00;;;;;-2.68;74.12;98033.63;4944327;28;103124;-71
2022/12/13 11:13:49;;;;;;;;;8.00;5.67;;;;;-2.58;74.27;98026.59;4961289;28;102154;-71
2022/12/13 11:16:32;;;;;;;;;4.33;2.00;;;;;-2.43;73.71;98026.06;4955443;28;101921;-71
2022/12/13 11:19:04;;;;;;;;;8.67;6.33;;;;;-2.35;72.88;98028.06;4945447;28;108852;-71
2022/12/13 11:21:35;;;;;;;;;3.33;3.33;;;;;-2.21;71.81;98021.56;4952985;28;102169;-71
2022/12/13 11:24:07;;;;;;;;;7.33;4.00;;;;;-2.18;71.69;98022.13;4965583;28;102096;-70
2022/12/13 11:26:38;;;;;;;;;7.00;2.00;;;;;-2.18;71.68;98015.97;4964466;28;102419;-70
2022/12/13 11:29:13;;;;;;;;;6.67;3.33;;;;;-2.20;73.16;98020.56;4966164;28;104064;-72
2022/12/13 11:31:49;;;;;;;;;10.00;8.67;;;;;-2.16;71.41;98016.69;4964521;28;102345;-72
2022/12/13 11:34:51;;;;;;;;;10.33;7.67;;;;;-2.36;70.20;98021.94;4967836;28;104258;-72
2022/12/13 11:37:40;;;;;;;;;23.67;12.33;;;;;-2.83;73.71;98020.75;4967702;28;102124;-72
2022/12/13 11:40:19;;;;;;;;;17.00;15.33;;;;;-2.88;72.90;98011.56;4968218;28;109908;-71
2022/12/13 11:42:49;;;;;;;;;11.00;10.00;;;;;-2.51;73.68;98004.72;4969874;28;102152;-71
2022/12/13 11:45:22;;;;;;;;;8.00;7.00;;;;;-2.90;73.16;98009.03;4965314;28;102601;-72
2022/12/13 11:48:07;;;;;;;;;12.33;8.00;;;;;-2.66;72.99;98013.19;4963542;28;101944;-72
2022/12/13 11:50:42;;;;;;;;;12.33;10.33;;;;;-2.70;73.20;98013.44;4963248;28;108662;-72
2022/12/13 11:53:26;;;;;;;;;11.00;10.33;;;;;-2.87;72.25;98016.69;4973829;28;102128;-72